createdAt,value
2023-05-08T00:01:54.526Z,3.20
2023-05-08T00:06:16.958Z,5.70
2023-05-08T00:10:30.705Z,5.03
2023-05-08T00:14:43.176Z,4.45
2023-05-08T00:18:55.661Z,3.22
2023-05-08T00:23:08.089Z,4.32
2023-05-08T00:27:20.583Z,3.97
2023-05-08T00:31:33.482Z,4.22
2023-05-08T00:35:46.430Z,3.85
2023-05-08T00:39:58.860Z,3.35
2023-05-08T00:44:11.356Z,3.67
2023-05-08T00:48:25.718Z,4.35
2023-05-08T00:52:38.977Z,3.42
2023-05-08T00:56:53.941Z,4.03
2023-05-08T01:01:06.639Z,4.03
2023-05-08T01:05:19.161Z,3.72
2023-05-08T01:09:31.591Z,4.05
2023-05-08T01:14:05.746Z,3.97
2023-05-08T01:18:22.606Z,5.15
2023-05-08T01:22:55.850Z,4.03
2023-05-08T01:27:48.491Z,3.30
2023-05-08T01:32:25.163Z,3.65
2023-05-08T01:37:02.832Z,2.90
2023-05-08T01:41:26.829Z,3.38
2023-05-08T01:45:47.952Z,3.22
2023-05-08T01:50:09.799Z,3.03
2023-05-08T01:54:27.968Z,3.13
2023-05-08T01:58:42.737Z,3.97
2023-05-08T02:02:56.612Z,2.45
2023-05-08T02:07:09.168Z,3.38
2023-05-08T02:11:22.938Z,3.22
2023-05-08T02:15:37.863Z,4.28
2023-05-08T02:19:52.135Z,3.55
2023-05-08T02:24:05.735Z,3.80
2023-05-08T02:28:19.809Z,3.05
2023-05-08T02:32:33.825Z,3.22
2023-05-08T02:36:46.704Z,2.90
2023-05-08T02:41:02.980Z,3.33
2023-05-08T02:45:15.531Z,2.78
2023-05-08T02:49:43.037Z,2.80
2023-05-08T02:54:25.412Z,2.63
2023-05-08T02:58:52.440Z,3.70
2023-05-08T03:03:53.211Z,2.72
2023-05-08T03:08:16.383Z,3.17
2023-05-08T03:12:31.913Z,3.00
2023-05-08T03:16:57.386Z,2.70
2023-05-08T03:21:12.018Z,2.70
2023-05-08T03:25:26.809Z,4.85
2023-05-08T03:29:40.648Z,3.45
2023-05-08T03:33:55.647Z,4.05
2023-05-08T03:38:08.905Z,3.78
2023-05-08T03:42:24.062Z,3.80
2023-05-08T03:46:36.856Z,2.88
2023-05-08T03:50:50.101Z,2.83
2023-05-08T03:55:02.740Z,4.28
2023-05-08T03:59:30.996Z,3.15
2023-05-08T04:04:08.698Z,3.47
2023-05-08T04:08:33.046Z,2.63
2023-05-08T04:13:05.539Z,3.65
2023-05-08T04:17:43.796Z,2.40
2023-05-08T04:22:04.686Z,3.63
2023-05-08T04:26:18.983Z,3.05
2023-05-08T04:30:31.883Z,3.38
2023-05-08T04:34:44.389Z,2.92
2023-05-08T04:38:59.238Z,3.30
2023-05-08T04:43:11.835Z,2.05
2023-05-08T04:47:24.901Z,3.08
2023-05-08T04:51:37.797Z,3.13
2023-05-08T04:55:50.248Z,2.80
2023-05-08T05:00:02.823Z,2.30
2023-05-08T05:04:15.311Z,3.05
2023-05-08T05:08:28.421Z,2.80
2023-05-08T05:12:40.935Z,3.58
2023-05-08T05:16:53.552Z,2.03
2023-05-08T05:21:05.990Z,2.70
2023-05-08T05:25:18.473Z,5.45
2023-05-08T05:29:31.132Z,3.65
2023-05-08T05:33:47.619Z,3.60
2023-05-08T05:38:06.246Z,2.50
2023-05-08T05:42:18.757Z,3.53
2023-05-08T05:46:33.340Z,4.13
2023-05-08T05:50:45.837Z,2.47
2023-05-08T05:54:58.289Z,3.50
2023-05-08T05:59:10.712Z,3.40
2023-05-08T06:03:23.201Z,3.50
2023-05-08T06:07:36.552Z,3.45
2023-05-08T06:11:49.112Z,2.88
2023-05-08T06:16:01.746Z,3.47
2023-05-08T06:20:14.477Z,3.70
2023-05-08T06:24:26.948Z,3.55
2023-05-08T06:28:39.450Z,2.95
2023-05-08T06:32:51.910Z,3.72
2023-05-08T06:37:04.449Z,3.65
2023-05-08T06:41:17.615Z,3.50
2023-05-08T06:45:30.079Z,2.70
2023-05-08T06:49:42.689Z,4.30
2023-05-08T06:53:55.199Z,3.03
2023-05-08T06:58:07.684Z,3.35
2023-05-08T07:02:20.294Z,3.17
2023-05-08T07:06:42.813Z,2.72
2023-05-08T07:10:55.377Z,2.95
2023-05-08T07:15:21.704Z,5.05
2023-05-08T07:23:59.996Z,4.47
2023-05-08T07:28:12.498Z,4.70
2023-05-08T07:32:25.533Z,3.75
2023-05-08T07:36:38.624Z,3.55
2023-05-08T07:40:52.336Z,4.68
2023-05-08T07:45:05.568Z,7.18
2023-05-08T07:49:18.014Z,3.92
2023-05-08T07:53:30.549Z,3.35
2023-05-08T07:57:44.640Z,4.05
2023-05-08T08:01:58.336Z,4.45
2023-05-08T08:06:20.909Z,3.40
2023-05-08T08:10:34.629Z,4.20
2023-05-08T08:14:47.196Z,5.00
2023-05-08T08:19:00.398Z,3.72
2023-05-08T08:23:12.917Z,3.90
2023-05-08T08:27:25.393Z,4.20
2023-05-08T08:31:37.959Z,4.45
2023-05-08T08:35:50.628Z,6.07
2023-05-08T08:40:03.080Z,3.70
2023-05-08T08:44:15.513Z,3.72
2023-05-08T08:48:29.657Z,5.40
2023-05-08T08:57:25.589Z,4.05
2023-05-08T09:01:41.761Z,6.70
2023-05-08T09:05:55.508Z,5.45
2023-05-08T09:10:08.855Z,5.47
2023-05-08T09:14:21.597Z,4.72
2023-05-08T09:18:34.093Z,6.35
2023-05-08T09:22:56.869Z,4.80
2023-05-08T09:27:23.418Z,4.88
2023-05-08T09:31:40.637Z,5.60
2023-05-08T09:35:53.476Z,6.35
2023-05-08T09:40:23.179Z,6.82
2023-05-08T09:44:53.571Z,7.32
2023-05-08T09:49:06.127Z,5.28
2023-05-08T09:53:18.665Z,6.60
2023-05-08T09:57:34.315Z,7.85
2023-05-08T10:01:47.437Z,5.50
2023-05-08T10:06:15.044Z,6.72
2023-05-08T10:10:31.477Z,6.55
2023-05-08T10:14:46.572Z,7.57
2023-05-08T10:19:11.412Z,5.63
2023-05-08T10:23:24.122Z,5.90
2023-05-08T10:27:46.929Z,6.35
2023-05-08T10:32:01.263Z,7.65
2023-05-08T10:36:15.588Z,6.15
2023-05-08T10:40:28.006Z,5.88
2023-05-08T10:44:41.497Z,6.15
2023-05-08T10:49:21.545Z,6.60
2023-05-08T10:53:50.879Z,6.57
2023-05-08T10:58:15.906Z,5.70
2023-05-08T11:02:37.641Z,5.60
2023-05-08T11:06:53.891Z,4.65
2023-05-08T11:11:19.784Z,5.30
2023-05-08T11:15:38.479Z,4.88
2023-05-08T11:24:17.449Z,5.50
2023-05-08T11:28:34.578Z,6.50
2023-05-08T11:33:19.430Z,5.47
2023-05-08T11:37:33.999Z,4.22
2023-05-08T11:41:51.195Z,5.03
2023-05-08T11:46:09.640Z,8.00
2023-05-08T11:50:22.126Z,4.82
2023-05-08T11:54:34.684Z,5.53
2023-05-08T11:58:47.092Z,5.38
2023-05-08T12:02:59.671Z,5.22
2023-05-08T12:07:12.646Z,7.00
2023-05-08T12:11:35.067Z,5.30
2023-05-08T12:15:49.315Z,4.30
2023-05-08T12:20:18.753Z,5.30
2023-05-08T12:24:32.309Z,5.00
2023-05-08T12:28:48.385Z,5.38
2023-05-08T12:33:01.674Z,9.15
2023-05-08T12:37:25.224Z,5.32
2023-05-08T12:41:53.309Z,5.22
2023-05-08T12:46:06.485Z,3.90
2023-05-08T12:50:22.603Z,4.93
2023-05-08T12:54:42.445Z,4.88
2023-05-08T12:59:00.491Z,5.13
2023-05-08T13:03:22.396Z,5.68
2023-05-08T13:07:35.444Z,5.30
2023-05-08T13:11:47.875Z,5.25
2023-05-08T13:16:05.423Z,6.20
2023-05-08T13:20:24.382Z,5.57
2023-05-08T13:24:36.822Z,4.97
2023-05-08T13:28:49.311Z,5.32
2023-05-08T13:33:02.571Z,6.00
2023-05-08T13:37:15.087Z,8.00
2023-05-08T13:41:27.547Z,6.05
2023-05-08T13:45:40.033Z,7.55
2023-05-08T13:49:53.131Z,6.32
2023-05-08T13:54:05.608Z,5.75
2023-05-08T13:58:18.030Z,5.47
2023-05-08T14:02:30.678Z,7.80
2023-05-08T14:06:43.222Z,5.53
2023-05-08T14:10:56.830Z,5.85
2023-05-08T14:15:19.346Z,5.22
2023-05-08T14:19:32.106Z,5.95
2023-05-08T14:23:45.413Z,5.28
2023-05-08T14:27:57.902Z,4.95
2023-05-08T14:32:11.830Z,4.88
2023-05-08T14:36:32.067Z,6.55
2023-05-08T14:40:55.265Z,6.57
2023-05-08T14:45:09.300Z,5.03
2023-05-08T14:49:32.794Z,6.25
2023-05-08T14:53:49.815Z,5.20
2023-05-08T14:58:02.396Z,5.07
2023-05-08T15:02:15.088Z,7.05
2023-05-08T15:06:28.112Z,5.57
2023-05-08T15:10:40.620Z,4.75
2023-05-08T15:14:53.158Z,4.68
2023-05-08T15:19:05.645Z,5.53
2023-05-08T15:23:23.230Z,4.95
2023-05-08T15:27:35.656Z,5.63
2023-05-08T15:31:48.112Z,5.15
2023-05-08T15:36:00.584Z,6.13
2023-05-08T15:40:14.243Z,5.32
2023-05-08T15:44:31.137Z,5.65
2023-05-08T15:48:50.212Z,6.57
2023-05-08T15:53:02.657Z,5.35
2023-05-08T15:57:15.158Z,5.35
2023-05-08T16:01:27.612Z,5.82
2023-05-08T16:05:46.636Z,6.63
2023-05-08T16:09:59.324Z,6.85
2023-05-08T16:14:11.796Z,5.28
2023-05-08T16:18:24.226Z,5.53
2023-05-08T16:22:36.792Z,5.75
2023-05-08T16:26:49.268Z,6.75
2023-05-08T16:31:02.784Z,5.22
2023-05-08T16:35:15.802Z,6.18
2023-05-08T16:39:28.681Z,6.22
2023-05-08T16:43:51.280Z,5.53
2023-05-08T16:48:04.800Z,5.35
2023-05-08T16:52:17.418Z,6.07
2023-05-08T16:56:29.829Z,5.53
2023-05-08T17:00:52.268Z,7.70
2023-05-08T17:05:05.076Z,7.05
2023-05-08T17:09:19.191Z,5.65
2023-05-08T17:13:31.850Z,5.63
2023-05-08T17:17:44.877Z,5.68
2023-05-08T17:21:59.569Z,9.65
2023-05-08T17:26:12.416Z,5.63
2023-05-08T17:30:24.988Z,6.40
2023-05-08T17:34:37.468Z,6.28
2023-05-08T17:38:52.779Z,6.72
2023-05-08T17:43:06.021Z,7.22
2023-05-08T17:47:18.518Z,7.43
2023-05-08T17:51:31.900Z,6.68
2023-05-08T17:55:48.020Z,6.85
2023-05-08T18:00:00.457Z,6.55
2023-05-08T18:04:13.019Z,5.72
2023-05-08T18:08:25.489Z,6.72
2023-05-08T18:12:37.962Z,5.55
2023-05-08T18:16:50.474Z,5.20
2023-05-08T18:21:02.953Z,6.78
2023-05-08T18:25:25.487Z,5.43
2023-05-08T18:29:38.181Z,6.00
2023-05-08T18:33:50.684Z,5.68
2023-05-08T18:38:03.216Z,7.53
2023-05-08T18:42:16.464Z,5.90
2023-05-08T18:46:29.006Z,6.28
2023-05-08T18:50:41.549Z,5.97
2023-05-08T18:54:54.098Z,6.70
2023-05-08T18:59:06.605Z,5.97
2023-05-08T19:03:19.214Z,9.63
2023-05-08T19:07:31.721Z,7.28
2023-05-08T19:11:44.145Z,5.97
2023-05-08T19:15:57.143Z,5.93
2023-05-08T19:20:10.426Z,6.80
2023-05-08T19:24:25.713Z,6.38
2023-05-08T19:28:38.250Z,6.80
2023-05-08T19:32:51.138Z,6.93
2023-05-08T19:37:13.638Z,7.35
2023-05-08T19:41:26.212Z,7.47
2023-05-08T19:45:39.043Z,5.78
2023-05-08T19:50:01.576Z,6.78
2023-05-08T19:54:14.209Z,6.82
2023-05-08T19:58:26.659Z,5.95
2023-05-08T20:02:40.389Z,5.90
2023-05-08T20:06:52.961Z,7.05
2023-05-08T20:11:10.080Z,5.45
2023-05-08T20:15:22.526Z,9.07
2023-05-08T20:19:45.034Z,6.65
2023-05-08T20:23:57.499Z,6.90
2023-05-08T20:28:09.937Z,6.85
2023-05-08T20:32:22.403Z,7.18
2023-05-08T20:36:34.945Z,6.88
2023-05-08T20:40:47.786Z,8.07
2023-05-08T20:45:11.107Z,5.35
2023-05-08T20:49:23.675Z,6.93
2023-05-08T20:53:46.142Z,5.70
2023-05-08T20:58:09.899Z,9.93
2023-05-08T21:02:22.446Z,6.68
2023-05-08T21:06:35.382Z,5.72
2023-05-08T21:10:57.839Z,6.63
2023-05-08T21:15:10.591Z,5.93
2023-05-08T21:19:23.717Z,6.65
2023-05-08T21:23:36.456Z,6.60
2023-05-08T21:27:56.163Z,5.53
2023-05-08T21:32:10.310Z,8.15
2023-05-08T21:36:23.065Z,7.57
2023-05-08T21:40:36.331Z,5.75
2023-05-08T21:44:48.777Z,8.73
2023-05-08T21:49:11.667Z,7.18
2023-05-08T21:53:24.217Z,6.47
2023-05-08T21:57:36.879Z,6.32
2023-05-08T22:01:49.513Z,8.15
2023-05-08T22:06:02.133Z,6.47
2023-05-08T22:10:15.115Z,5.80
2023-05-08T22:14:27.911Z,5.50
2023-05-08T22:18:40.434Z,6.90
2023-05-08T22:23:02.861Z,6.18
2023-05-08T22:27:15.336Z,8.60
2023-05-08T22:31:27.807Z,6.32
2023-05-08T22:35:40.313Z,6.28
2023-05-08T22:39:52.871Z,5.55
2023-05-08T22:44:07.015Z,8.32
2023-05-08T22:48:19.484Z,6.97
2023-05-08T22:52:32.366Z,7.00
2023-05-08T22:56:44.852Z,9.85
2023-05-08T23:00:57.635Z,6.88
2023-05-08T23:05:10.441Z,7.13
2023-05-08T23:09:23.734Z,9.02
2023-05-08T23:13:46.256Z,8.48
2023-05-08T23:17:58.866Z,7.30
2023-05-08T23:22:11.444Z,6.40
2023-05-08T23:26:23.853Z,5.97
2023-05-08T23:30:36.308Z,6.05
2023-05-08T23:34:48.784Z,6.65
2023-05-08T23:39:01.286Z,6.80
2023-05-08T23:43:13.775Z,6.00
2023-05-08T23:47:26.325Z,6.28
2023-05-08T23:51:48.815Z,5.82
2023-05-08T23:56:11.029Z,5.20
